Time;durP1;ratioP1;P1;durP2;ratioP2;P2;SDS_P1;SDS_P2;PMS_P1;PMS_P2;Temp;Humidity;BMP_temperature;BMP_pressure;BME280_temperature;BME280_humidity;BME280_pressure;Samples;Min_cycle;Max_cycle;Signal;HPM_P1;HPM_P2
2023/06/01 00:02:05;;;;;;;11.60;3.20;;;;;;;16.34;61.60;99259.80;79489;1297;3011587;-61
2023/06/01 00:04:34;;;;;;;8.00;2.50;;;;;;;16.30;61.42;99254.16;78339;1298;3053777;-63
2023/06/01 00:07:01;;;;;;;9.40;2.90;;;;;;;16.27;61.75;99262.72;79796;1295;3013834;-59
2023/06/01 00:09:28;;;;;;;10.60;3.20;;;;;;;16.22;62.04;99257.53;79711;1294;3013281;-63
2023/06/01 00:11:56;;;;;;;7.10;2.80;;;;;;;16.19;62.32;99259.39;78313;1298;3049817;-62
2023/06/01 00:14:22;;;;;;;6.30;2.80;;;;;;;16.17;62.23;99260.64;79573;1295;3020631;-60
2023/06/01 00:16:50;;;;;;;10.50;3.10;;;;;;;16.10;62.04;99267.91;79583;1296;3013081;-62
2023/06/01 00:19:20;;;;;;;10.60;3.50;;;;;;;16.07;62.15;99267.28;78376;1298;3051202;-62
2023/06/01 00:21:47;;;;;;;10.20;3.80;;;;;;;16.04;62.28;99264.90;79432;1297;3013557;-60
2023/06/01 00:24:13;;;;;;;3.60;2.50;;;;;;;15.99;62.35;99265.05;79645;1294;3011631;-61
2023/06/01 00:26:42;;;;;;;5.40;2.90;;;;;;;15.89;62.69;99263.92;78266;1297;3048450;-64
2023/06/01 00:29:08;;;;;;;8.80;3.10;;;;;;;15.87;62.59;99266.88;79559;1296;3013741;-61
2023/06/01 00:31:35;;;;;;;7.00;3.00;;;;;;;15.86;62.58;99262.91;79537;1295;3011531;-61
2023/06/01 00:34:03;;;;;;;3.90;2.30;;;;;;;15.90;62.65;99263.48;78261;1298;3028911;-61
2023/06/01 00:36:31;;;;;;;6.10;2.40;;;;;;;15.89;62.46;99262.17;79350;1295;3013986;-62
2023/06/01 00:39:01;;;;;;;5.40;2.80;;;;;;;15.84;62.60;99264.52;79497;1298;3011479;-61
2023/06/01 00:41:31;;;;;;;4.50;2.50;;;;;;;15.77;62.67;99269.27;78279;1295;3048630;-62
2023/06/01 00:43:57;;;;;;;4.20;2.50;;;;;;;15.73;62.77;99268.09;79628;1296;3015195;-61
2023/06/01 00:46:24;;;;;;;7.50;2.50;;;;;;;15.68;63.18;99270.95;79545;1298;3013298;-60
2023/06/01 00:48:52;;;;;;;3.10;2.00;;;;;;;15.73;63.04;99269.85;78024;1301;3052821;-62
2023/06/01 00:51:18;;;;;;;4.30;2.40;;;;;;;15.76;62.74;99269.91;79517;1300;3013414;-60
2023/06/01 00:53:45;;;;;;;5.30;2.60;;;;;;;15.80;62.60;99272.27;79308;1300;3011630;-60
2023/06/01 00:56:13;;;;;;;4.20;2.10;;;;;;;15.82;62.42;99272.63;78314;1294;3030199;-61
2023/06/01 00:58:40;;;;;;;6.40;2.90;;;;;;;15.82;62.11;99271.06;79475;1295;3013227;-62
2023/06/01 01:01:07;;;;;;;8.40;2.70;;;;;;;15.81;62.13;99276.04;79582;1295;3011618;-61
2023/06/01 01:03:38;;;;;;;6.40;2.90;;;;;;;15.80;62.10;99275.96;78325;1297;3052629;-64
2023/06/01 01:06:11;;;;;;;6.10;2.60;;;;;;;15.79;62.30;99276.40;79509;1296;3011547;-63
2023/06/01 01:09:17;;;;;;;6.40;2.90;;;;;;;15.80;62.15;99278.81;78021;1301;3051790;-63
2023/06/01 01:11:52;;;;;;;6.20;2.90;;;;;;;15.76;62.18;99277.52;78203;1298;3057729;-59
2023/06/01 01:14:22;;;;;;;7.60;3.30;;;;;;;15.76;62.04;99287.26;78967;1298;3011598;-62
2023/06/01 01:16:53;;;;;;;8.60;4.00;;;;;;;15.78;61.87;99290.25;79500;1298;3013218;-62
2023/06/01 01:19:41;;;;;;;6.40;3.60;;;;;;;15.79;61.96;99289.49;77921;1300;3050701;-59
2023/06/01 01:22:34;;;;;;;9.00;3.90;;;;;;;15.79;61.82;99291.55;78277;1302;3053174;-61
2023/06/01 01:25:49;;;;;;;4.90;3.10;;;;;;;15.79;61.63;99290.35;77992;1295;3054643;-60
2023/06/01 01:28:26;;;;;;;8.20;3.70;;;;;;;15.73;61.68;99286.23;77799;1302;3069384;-64
2023/06/01 01:30:55;;;;;;;7.60;3.60;;;;;;;15.73;61.63;99290.70;77949;1301;3052512;-62
2023/06/01 01:33:21;;;;;;;6.90;3.70;;;;;;;15.71;61.66;99287.79;79159;1295;3013647;-62
2023/06/01 01:35:49;;;;;;;6.80;4.00;;;;;;;15.70;61.63;99293.38;79164;1295;3013253;-62
2023/06/01 01:38:18;;;;;;;11.10;3.30;;;;;;;15.71;61.48;99291.69;77969;1295;3049808;-61
2023/06/01 01:40:44;;;;;;;5.60;3.00;;;;;;;15.71;61.13;99291.34;79232;1297;3013750;-65
2023/06/01 01:43:11;;;;;;;8.30;3.40;;;;;;;15.71;61.03;99292.77;79217;1301;3011760;-62
2023/06/01 01:45:39;;;;;;;5.90;3.00;;;;;;;15.71;61.13;99289.38;77900;1301;3026594;-62
2023/06/01 01:48:17;;;;;;;5.50;3.40;;;;;;;15.72;61.12;99288.80;79463;1296;3014801;-61
2023/06/01 01:50:50;;;;;;;7.00;3.50;;;;;;;15.73;60.97;99290.98;78197;1298;3053473;-59
2023/06/01 01:53:17;;;;;;;4.80;3.30;;;;;;;15.75;60.67;99294.05;79127;1301;3013736;-63
2023/06/01 01:55:47;;;;;;;7.90;3.60;;;;;;;15.74;60.65;99294.44;78057;1301;3053185;-62
2023/06/01 01:58:13;;;;;;;9.50;3.50;;;;;;;15.76;60.52;99297.80;79018;1301;3013546;-62
2023/06/01 02:00:40;;;;;;;7.50;3.40;;;;;;;15.77;60.28;99299.15;78997;1301;3013330;-62
2023/06/01 02:03:16;;;;;;;7.00;3.40;;;;;;;15.76;60.29;99296.04;77909;1301;3026127;-62
2023/06/01 02:05:45;;;;;;;13.30;3.30;;;;;;;15.77;60.15;99298.11;78755;1299;3011639;-62
2023/06/01 02:08:12;;;;;;;5.60;2.80;;;;;;;15.75;60.06;99299.67;79358;1293;3011485;-62
2023/06/01 02:10:40;;;;;;;3.90;2.80;;;;;;;15.75;59.86;99303.53;79202;1295;3013665;-62
2023/06/01 02:13:09;;;;;;;8.50;3.20;;;;;;;15.76;59.87;99302.78;78025;1300;3053231;-62
2023/06/01 02:15:36;;;;;;;7.00;3.30;;;;;;;15.76;59.95;99299.93;79324;1300;3013245;-63
2023/06/01 02:18:03;;;;;;;5.90;3.00;;;;;;;15.84;59.46;99298.79;79254;1292;3011672;-63
2023/06/01 02:20:31;;;;;;;4.90;2.50;;;;;;;15.85;59.20;99304.88;78057;1299;3058474;-63
2023/06/01 02:22:58;;;;;;;4.00;2.40;;;;;;;15.89;59.00;99307.02;79177;1296;3013704;-63
2023/06/01 02:25:25;;;;;;;5.70;2.70;;;;;;;15.90;58.78;99306.60;79219;1294;3011829;-62
2023/06/01 02:27:52;;;;;;;5.40;2.60;;;;;;;15.91;58.32;99303.62;77999;1301;3026433;-62
2023/06/01 02:30:19;;;;;;;4.90;2.60;;;;;;;15.88;58.08;99306.55;79487;1298;3013287;-62
2023/06/01 02:32:48;;;;;;;6.10;2.20;;;;;;;15.89;58.09;99302.52;79287;1296;3011428;-61
2023/06/01 02:35:17;;;;;;;6.00;2.10;;;;;;;15.96;57.90;99301.31;78224;1296;3056758;-63
2023/06/01 02:37:44;;;;;;;6.90;1.90;;;;;;;15.97;57.95;99299.95;79551;1298;3019023;-63
2023/06/01 02:40:11;;;;;;;2.50;1.90;;;;;;;15.99;57.69;99305.80;79505;1298;3011687;-62
2023/06/01 02:42:39;;;;;;;6.70;1.70;;;;;;;16.01;57.58;99303.89;78167;1301;3025461;-62
2023/06/01 02:45:07;;;;;;;5.30;2.00;;;;;;;16.04;57.42;99305.75;79395;1300;3013162;-64
2023/06/01 02:47:33;;;;;;;5.30;2.30;;;;;;;16.02;57.20;99302.01;79637;1296;3011614;-63
2023/06/01 02:50:01;;;;;;;5.50;2.00;;;;;;;16.03;57.32;99304.75;78218;1298;3056631;-60
2023/06/01 02:52:28;;;;;;;3.10;1.80;;;;;;;16.04;57.42;99303.60;79504;1297;3013135;-65
2023/06/01 02:54:54;;;;;;;7.50;2.30;;;;;;;16.04;57.59;99305.23;79299;1295;3013143;-64
2023/06/01 02:57:46;;;;;;;4.20;2.30;;;;;;;16.02;57.93;99310.11;78063;1301;3054317;-63
2023/06/01 03:00:17;;;;;;;4.90;2.60;;;;;;;16.01;58.13;99308.66;79476;1301;3013015;-62
2023/06/01 03:02:46;;;;;;;5.50;2.70;;;;;;;16.00;58.18;99303.76;78229;1297;3052283;-63
2023/06/01 03:05:14;;;;;;;5.10;2.50;;;;;;;16.01;58.18;99303.17;79299;1296;3013675;-64
2023/06/01 03:07:41;;;;;;;7.10;2.80;;;;;;;16.05;57.88;99305.14;79593;1292;3011981;-64
2023/06/01 03:10:19;;;;;;;7.80;2.50;;;;;;;16.11;57.83;99308.45;78154;1300;3049864;-64
2023/06/01 03:13:14;;;;;;;6.10;2.50;;;;;;;16.18;57.50;99308.75;78270;1298;3051913;-63
2023/06/01 03:15:41;;;;;;;3.90;2.20;;;;;;;16.22;57.11;99311.63;79560;1297;3014083;-64
2023/06/01 03:18:11;;;;;;;7.20;2.80;;;;;;;16.24;57.21;99315.67;79450;1296;3011925;-62
2023/06/01 03:20:39;;;;;;;6.60;2.50;;;;;;;16.25;57.16;99317.17;78193;1296;3055402;-61
2023/06/01 03:23:06;;;;;;;7.00;2.50;;;;;;;16.30;57.03;99317.44;79623;1296;3013604;-60
2023/06/01 03:25:33;;;;;;;7.10;2.70;;;;;;;16.35;56.55;99317.91;79457;1299;3011514;-62
2023/06/01 03:28:01;;;;;;;6.70;2.30;;;;;;;16.40;56.73;99316.45;78280;1297;3052435;-63
2023/06/01 03:30:28;;;;;;;4.00;2.40;;;;;;;16.41;56.49;99316.95;79599;1298;3013667;-62
2023/06/01 03:32:59;;;;;;;7.20;2.00;;;;;;;16.47;56.56;99320.02;78167;1298;3052274;-63
2023/06/01 03:35:26;;;;;;;5.30;2.30;;;;;;;16.52;56.24;99317.72;79559;1295;3013545;-62
2023/06/01 03:37:53;;;;;;;4.70;2.70;;;;;;;16.58;56.08;99318.71;79300;1298;3011829;-61
2023/06/01 03:40:21;;;;;;;3.80;2.40;;;;;;;16.60;55.88;99320.50;78289;1297;3028900;-64
2023/06/01 03:42:48;;;;;;;4.10;2.10;;;;;;;16.60;56.02;99326.52;79340;1301;3013516;-60
2023/06/01 03:45:18;;;;;;;5.90;1.90;;;;;;;16.65;56.06;99326.57;79565;1296;3011515;-61
2023/06/01 03:47:46;;;;;;;4.40;1.90;;;;;;;16.67;55.65;99322.73;78034;1301;3052541;-66
2023/06/01 03:50:12;;;;;;;4.50;2.20;;;;;;;16.69;55.61;99325.41;79669;1297;3012663;-63
2023/06/01 03:52:40;;;;;;;3.60;2.10;;;;;;;16.72;55.57;99324.94;79400;1296;3013010;-63
2023/06/01 03:55:10;;;;;;;5.90;2.10;;;;;;;16.77;55.64;99329.60;78089;1296;3026097;-64
2023/06/01 03:58:04;;;;;;;8.70;2.60;;;;;;;16.78;55.59;99331.86;78246;1301;3052838;-61
2023/06/01 04:00:31;;;;;;;8.10;2.00;;;;;;;16.80;55.88;99333.98;79537;1298;3012888;-63
2023/06/01 04:02:58;;;;;;;10.00;2.80;;;;;;;16.84;55.58;99330.63;79327;1299;3011335;-64
2023/06/01 04:05:27;;;;;;;6.70;2.60;;;;;;;16.86;55.56;99329.83;78367;1297;3055747;-61
2023/06/01 04:07:55;;;;;;;8.90;2.90;;;;;;;16.91;55.70;99331.38;79620;1299;3013703;-61
2023/06/01 04:10:22;;;;;;;5.70;2.90;;;;;;;16.94;55.31;99336.41;79709;1298;3011484;-62
2023/06/01 04:12:50;;;;;;;4.20;2.70;;;;;;;16.95;55.12;99339.02;78703;1298;3053418;-62
2023/06/01 04:15:18;;;;;;;5.50;2.50;;;;;;;16.98;55.22;99340.50;79391;1297;3013118;-61
2023/06/01 04:17:45;;;;;;;5.70;2.40;;;;;;;16.95;55.29;99337.41;79587;1292;3012924;-61
2023/06/01 04:20:17;;;;;;;4.40;2.30;;;;;;;16.95;54.97;99338.98;78249;1297;3057828;-60
2023/06/01 04:22:44;;;;;;;5.30;2.60;;;;;;;16.99;54.97;99339.58;79482;1296;3011680;-63
2023/06/01 04:25:17;;;;;;;5.90;2.60;;;;;;;17.05;54.76;99338.66;78444;1298;3026477;-60
2023/06/01 04:27:47;;;;;;;6.00;3.10;;;;;;;17.04;54.82;99341.03;79361;1294;3011540;-61
2023/06/01 04:30:16;;;;;;;13.10;2.80;;;;;;;17.09;54.88;99344.66;78107;1300;3053390;-61
2023/06/01 04:32:44;;;;;;;5.70;2.10;;;;;;;17.14;55.05;99343.70;79369;1301;3014839;-66
2023/06/01 04:35:14;;;;;;;4.10;2.10;;;;;;;17.20;54.91;99347.56;78904;1296;3011614;-64
2023/06/01 04:37:41;;;;;;;7.70;2.80;;;;;;;17.26;54.38;99342.27;79387;1299;3013742;-63
2023/06/01 04:40:10;;;;;;;8.20;3.20;;;;;;;17.33;54.20;99343.74;79575;1295;3012006;-61
2023/06/01 04:42:55;;;;;;;8.30;3.70;;;;;;;17.38;54.08;99346.01;78048;1300;3053426;-61
2023/06/01 04:45:25;;;;;;;8.10;3.80;;;;;;;17.37;53.99;99349.22;78363;1297;3050307;-67
2023/06/01 04:47:57;;;;;;;9.90;3.50;;;;;;;17.37;54.19;99350.09;79246;1302;3011642;-64
2023/06/01 04:50:48;;;;;;;8.00;3.70;;;;;;;17.40;53.48;99351.84;78165;1298;3052733;-63
2023/06/01 04:53:14;;;;;;;7.10;2.80;;;;;;;17.45;53.43;99351.91;79528;1297;3019331;-63
2023/06/01 04:55:44;;;;;;;9.30;3.20;;;;;;;17.51;53.35;99347.48;79596;1297;3012702;-62
2023/06/01 04:58:12;;;;;;;9.10;2.60;;;;;;;17.53;53.28;99347.08;78236;1297;3048728;-64
2023/06/01 05:00:39;;;;;;;10.00;2.60;;;;;;;17.56;53.13;99348.21;79316;1299;3015652;-62
2023/06/01 05:03:06;;;;;;;9.90;3.20;;;;;;;17.50;53.44;99342.59;79513;1296;3011696;-64
2023/06/01 05:05:34;;;;;;;5.70;3.00;;;;;;;17.54;53.53;99345.41;78041;1301;3053661;-61
2023/06/01 05:08:02;;;;;;;6.00;2.30;;;;;;;17.62;53.25;99346.77;79499;1299;3013615;-64
2023/06/01 05:10:29;;;;;;;3.20;2.10;;;;;;;17.64;52.75;99350.50;79498;1293;3013590;-64
2023/06/01 05:12:57;;;;;;;5.30;1.80;;;;;;;17.71;52.45;99348.98;78178;1298;3049374;-63
2023/06/01 05:15:24;;;;;;;8.30;2.10;;;;;;;17.79;52.42;99349.49;79401;1294;3013698;-64
2023/06/01 05:17:51;;;;;;;5.00;1.80;;;;;;;17.82;52.50;99351.17;79494;1299;3011785;-63
2023/06/01 05:20:20;;;;;;;3.80;1.50;;;;;;;17.84;52.15;99351.37;78250;1302;3053102;-63
2023/06/01 05:22:52;;;;;;;6.50;1.40;;;;;;;17.90;52.26;99350.09;79505;1296;3011439;-64
2023/06/01 05:25:20;;;;;;;5.30;1.30;;;;;;;17.92;52.03;99352.54;78575;1298;3051334;-65
2023/06/01 05:27:47;;;;;;;8.70;1.80;;;;;;;18.00;51.26;99353.09;79225;1298;3012931;-63
2023/06/01 05:30:14;;;;;;;3.40;1.40;;;;;;;18.00;51.27;99353.42;79391;1298;3013038;-64
2023/06/01 05:32:42;;;;;;;2.30;1.40;;;;;;;18.06;51.48;99353.39;78157;1299;3026132;-61
2023/06/01 05:35:15;;;;;;;4.50;1.60;;;;;;;18.15;51.44;99358.92;77546;1299;3052233;-67
2023/06/01 05:37:43;;;;;;;2.10;1.30;;;;;;;18.20;51.82;99362.33;78291;1301;3068549;-61
2023/06/01 05:40:10;;;;;;;4.70;1.60;;;;;;;18.25;51.64;99360.13;79258;1295;3020625;-63
2023/06/01 05:42:41;;;;;;;4.30;1.60;;;;;;;18.27;51.62;99363.48;79011;1298;3011969;-61
2023/06/01 05:45:09;;;;;;;3.80;1.50;;;;;;;18.18;51.58;99365.71;79520;1296;3013182;-64
2023/06/01 05:47:36;;;;;;;5.10;1.70;;;;;;;18.20;51.62;99366.67;79462;1299;3013028;-61
2023/06/01 05:50:05;;;;;;;6.60;1.50;;;;;;;18.20;51.31;99368.04;78201;1299;3054063;-62
2023/06/01 05:52:33;;;;;;;5.60;1.50;;;;;;;18.18;51.80;99373.60;79503;1298;3011375;-63
2023/06/01 05:55:03;;;;;;;4.80;1.50;;;;;;;18.16;51.58;99371.29;78733;1295;3011938;-62
2023/06/01 05:57:30;;;;;;;3.50;1.60;;;;;;;18.18;51.95;99374.39;80751;1298;3011519;-61
2023/06/01 05:59:57;;;;;;;2.80;1.40;;;;;;;18.25;51.71;99371.80;79255;1295;3012210;-60
2023/06/01 06:02:24;;;;;;;2.10;1.20;;;;;;;18.32;51.73;99370.97;78035;1295;3053175;-62
2023/06/01 06:04:51;;;;;;;2.50;1.30;;;;;;;18.42;51.16;99374.13;79474;1299;3018551;-61
2023/06/01 06:07:18;;;;;;;2.30;1.30;;;;;;;18.50;51.11;99376.08;79394;1295;3013460;-61
2023/06/01 06:09:46;;;;;;;3.40;1.60;;;;;;;18.47;51.62;99371.30;78173;1298;3029693;-62
2023/06/01 06:12:12;;;;;;;2.70;1.40;;;;;;;18.54;51.96;99374.95;79415;1298;3020709;-64
2023/06/01 06:14:39;;;;;;;2.70;1.30;;;;;;;18.60;51.80;99373.99;79408;1298;3011608;-62
2023/06/01 06:17:08;;;;;;;4.60;1.90;;;;;;;18.78;51.17;99375.67;78176;1296;3028428;-61
2023/06/01 06:19:34;;;;;;;4.20;1.20;;;;;;;18.91;50.25;99377.46;79489;1298;3013552;-62
2023/06/01 06:22:01;;;;;;;3.30;1.30;;;;;;;18.91;49.84;99377.75;79431;1298;3011862;-61
2023/06/01 06:24:29;;;;;;;3.70;1.20;;;;;;;18.96;49.58;99376.80;78290;1298;3029362;-62
2023/06/01 06:26:56;;;;;;;4.40;1.20;;;;;;;19.01;49.37;99375.32;79399;1295;3013061;-61
2023/06/01 06:29:23;;;;;;;3.00;1.20;;;;;;;19.07;48.99;99378.08;79333;1297;3011659;-63
2023/06/01 06:31:51;;;;;;;6.00;1.70;;;;;;;19.12;48.90;99377.18;78320;1295;3025706;-63
2023/06/01 06:34:18;;;;;;;3.30;1.30;;;;;;;19.16;48.58;99377.52;79486;1298;3012904;-62
2023/06/01 06:36:44;;;;;;;3.10;1.50;;;;;;;19.29;48.56;99377.88;79392;1298;3013705;-63
2023/06/01 06:39:12;;;;;;;7.30;1.70;;;;;;;19.35;48.64;99371.58;78124;1296;3026672;-63
2023/06/01 06:41:42;;;;;;;3.90;1.40;;;;;;;19.39;48.98;99373.87;79475;1296;3012846;-64
2023/06/01 06:44:11;;;;;;;3.60;1.30;;;;;;;19.45;48.99;99371.10;78924;1296;3011676;-62
2023/06/01 06:46:38;;;;;;;1.20;1.00;;;;;;;19.55;48.62;99375.52;79453;1296;3020885;-64
2023/06/01 06:49:05;;;;;;;2.00;1.20;;;;;;;19.66;48.20;99370.65;79476;1295;3011671;-63
2023/06/01 06:51:35;;;;;;;5.40;1.30;;;;;;;19.74;48.06;99372.30;78336;1298;3052740;-61
2023/06/01 06:54:05;;;;;;;1.70;1.20;;;;;;;19.85;47.85;99370.02;79291;1300;3013384;-64
2023/06/01 06:56:34;;;;;;;3.70;1.10;;;;;;;19.92;47.51;99373.90;79001;1294;3011981;-63
2023/06/01 06:59:01;;;;;;;3.90;1.40;;;;;;;19.98;46.86;99373.95;79589;1294;3013487;-63
2023/06/01 07:01:27;;;;;;;2.90;1.30;;;;;;;20.08;46.41;99372.30;79469;1297;3011877;-63
2023/06/01 07:03:55;;;;;;;2.70;1.30;;;;;;;20.19;45.74;99371.18;78268;1298;3027452;-63
2023/06/01 07:06:22;;;;;;;4.30;1.10;;;;;;;20.32;45.79;99373.25;79502;1308;3011883;-65
2023/06/01 07:08:49;;;;;;;3.70;1.10;;;;;;;20.42;45.01;99370.44;79403;1298;3011743;-61
2023/06/01 07:11:18;;;;;;;5.00;1.10;;;;;;;20.47;43.86;99373.02;78190;1298;3027159;-63
2023/06/01 07:13:45;;;;;;;4.50;1.00;;;;;;;20.43;44.32;99367.84;79434;1295;3013946;-63
2023/06/01 07:16:11;;;;;;;2.40;1.20;;;;;;;20.51;45.00;99367.75;79497;1293;3011650;-64
2023/06/01 07:18:40;;;;;;;9.90;1.30;;;;;;;20.60;44.39;99369.15;78484;1297;3052611;-62
2023/06/01 07:21:06;;;;;;;3.60;1.30;;;;;;;20.68;43.62;99363.19;79496;1298;3020469;-62
2023/06/01 07:23:33;;;;;;;3.00;1.10;;;;;;;20.74;43.47;99366.83;79650;1295;3012850;-64
2023/06/01 07:26:01;;;;;;;3.00;1.30;;;;;;;20.86;44.12;99368.21;78411;1298;3028101;-61
2023/06/01 07:28:28;;;;;;;2.90;1.10;;;;;;;20.84;43.42;99367.95;79566;1298;3013221;-63
2023/06/01 07:30:54;;;;;;;3.00;1.40;;;;;;;20.93;44.01;99364.28;79578;1293;3013447;-64
2023/06/01 07:33:25;;;;;;;3.40;1.00;;;;;;;21.05;44.31;99364.42;78262;1297;3053439;-62
2023/06/01 07:35:53;;;;;;;1.80;1.00;;;;;;;21.19;43.76;99364.41;79553;1295;3013541;-64
2023/06/01 07:38:22;;;;;;;1.50;1.10;;;;;;;21.23;43.57;99366.96;78291;1298;3028983;-62
2023/06/01 07:40:50;;;;;;;5.40;1.30;;;;;;;21.27;42.96;99362.60;79342;1300;3013482;-64
2023/06/01 07:43:16;;;;;;;4.20;1.40;;;;;;;21.44;42.89;99365.66;79502;1296;3011892;-63
2023/06/01 07:45:44;;;;;;;2.30;1.10;;;;;;;21.47;42.00;99365.52;78434;1298;3057463;-65
2023/06/01 07:48:11;;;;;;;4.70;1.10;;;;;;;21.58;41.93;99365.63;79611;1294;3013427;-62
2023/06/01 07:50:38;;;;;;;4.00;1.10;;;;;;;21.68;42.14;99367.70;79473;1294;3011891;-63
2023/06/01 07:53:06;;;;;;;3.50;1.20;;;;;;;21.75;40.68;99366.93;78326;1294;3052659;-63
2023/06/01 07:55:32;;;;;;;2.90;1.30;;;;;;;21.69;39.22;99364.71;79505;1297;3021344;-61
2023/06/01 07:57:59;;;;;;;6.00;1.50;;;;;;;21.62;39.43;99367.13;79516;1298;3011273;-63
2023/06/01 08:00:28;;;;;;;5.60;1.30;;;;;;;21.59;40.04;99371.70;78473;1295;3028899;-61
2023/06/01 08:02:55;;;;;;;5.60;1.80;;;;;;;21.75;39.63;99363.55;79610;1295;3013914;-64
2023/06/01 08:05:22;;;;;;;6.50;1.00;;;;;;;21.84;38.44;99366.02;79441;1296;3011629;-67
2023/06/01 08:07:50;;;;;;;2.70;1.40;;;;;;;21.87;38.33;99367.25;78256;1298;3052723;-61
2023/06/01 08:10:19;;;;;;;5.40;1.10;;;;;;;21.86;38.08;99368.59;79530;1298;3012878;-60
2023/06/01 08:12:47;;;;;;;5.10;1.30;;;;;;;21.84;38.84;99367.75;79534;1294;3011671;-61
2023/06/01 08:15:15;;;;;;;2.10;1.10;;;;;;;21.97;38.80;99360.98;78452;1298;3056779;-63
2023/06/01 08:17:43;;;;;;;5.40;1.70;;;;;;;22.05;38.12;99357.94;79457;1293;3013329;-61
2023/06/01 08:20:13;;;;;;;4.80;1.30;;;;;;;22.09;37.48;99355.38;79485;1296;3013196;-63
2023/06/01 08:22:42;;;;;;;5.10;1.20;;;;;;;22.09;37.84;99355.39;78337;1298;3053095;-63
2023/06/01 08:25:09;;;;;;;3.00;1.20;;;;;;;22.25;38.14;99348.65;82177;1294;3018539;-62
2023/06/01 08:27:36;;;;;;;5.30;1.00;;;;;;;22.35;37.41;99349.75;82107;1295;3011108;-64
2023/06/01 08:30:05;;;;;;;7.10;1.40;;;;;;;22.47;37.11;99349.12;80838;1293;3056377;-64
2023/06/01 08:32:32;;;;;;;3.30;1.30;;;;;;;22.57;36.63;99349.87;82094;1295;3011422;-63
2023/06/01 08:34:58;;;;;;;2.20;1.10;;;;;;;22.57;36.61;99344.89;82116;1295;3011309;-61
2023/06/01 08:37:26;;;;;;;4.70;2.00;;;;;;;22.57;36.29;99345.11;80857;1295;3050988;-62
2023/06/01 08:39:53;;;;;;;5.20;1.40;;;;;;;22.49;36.33;99346.66;82115;1293;3013052;-62
2023/06/01 08:42:31;;;;;;;7.60;1.70;;;;;;;22.40;36.65;99340.45;82118;1295;3011402;-65
2023/06/01 08:44:59;;;;;;;3.70;1.70;;;;;;;22.53;37.01;99340.70;80864;1294;3056692;-62
2023/06/01 08:47:26;;;;;;;2.90;1.60;;;;;;;22.66;36.95;99341.81;81935;1292;3012558;-63
2023/06/01 08:49:52;;;;;;;4.30;1.70;;;;;;;22.80;37.02;99339.88;81932;1292;3011341;-65
2023/06/01 08:52:21;;;;;;;3.40;1.30;;;;;;;22.97;36.54;99342.59;80851;1297;3027572;-62
2023/06/01 08:54:48;;;;;;;5.50;1.70;;;;;;;23.18;36.03;99335.91;82012;1295;3011507;-65
2023/06/01 08:57:15;;;;;;;5.00;1.70;;;;;;;23.26;35.64;99331.77;82158;1293;3011385;-62
2023/06/01 08:59:43;;;;;;;2.80;1.50;;;;;;;23.23;35.12;99337.59;80829;1294;3055050;-63
2023/06/01 09:02:10;;;;;;;3.80;1.20;;;;;;;23.22;35.35;99332.84;81959;1295;3018453;-65
2023/06/01 09:04:41;;;;;;;6.20;1.90;;;;;;;23.37;35.23;99332.73;82090;1294;3011297;-63
2023/06/01 09:07:09;;;;;;;3.80;1.40;;;;;;;23.50;34.95;99333.16;80871;1295;3053473;-65
2023/06/01 09:09:36;;;;;;;3.90;1.30;;;;;;;23.68;34.50;99325.27;82129;1295;3011320;-64
2023/06/01 09:12:25;;;;;;;4.80;1.20;;;;;;;23.73;33.83;99326.19;82129;1294;3011373;-64
2023/06/01 09:15:17;;;;;;;4.40;1.30;;;;;;;23.81;32.86;99329.44;80811;1294;3056320;-64
2023/06/01 09:17:47;;;;;;;4.20;1.50;;;;;;;23.74;32.35;99330.64;80792;1294;3048349;-63
2023/06/01 09:20:14;;;;;;;4.10;1.30;;;;;;;23.71;32.36;99330.92;82165;1293;3012938;-63
2023/06/01 09:22:42;;;;;;;2.40;1.20;;;;;;;23.81;31.73;99332.24;82155;1294;3011074;-63
2023/06/01 09:25:12;;;;;;;3.40;1.50;;;;;;;23.92;31.70;99326.38;80872;1294;3053033;-61
2023/06/01 09:27:50;;;;;;;2.50;1.10;;;;;;;23.92;31.69;99327.31;82076;1295;3011198;-64
2023/06/01 09:30:20;;;;;;;4.80;1.60;;;;;;;24.06;31.72;99324.73;80808;1294;3050294;-65
2023/06/01 09:32:53;;;;;;;6.30;1.40;;;;;;;24.00;31.58;99322.73;82124;1295;3013194;-63
2023/06/01 09:35:37;;;;;;;4.30;1.40;;;;;;;23.99;31.79;99321.41;80815;1294;3051738;-64
2023/06/01 09:38:06;;;;;;;4.00;1.60;;;;;;;23.93;31.74;99321.22;80770;1294;3049601;-63
2023/06/01 09:40:35;;;;;;;5.60;1.30;;;;;;;24.06;31.96;99321.14;82185;1293;3013033;-63
2023/06/01 09:43:25;;;;;;;2.70;1.30;;;;;;;24.20;31.55;99316.61;81610;1293;3011258;-65
2023/06/01 09:46:14;;;;;;;1.90;1.20;;;;;;;24.40;31.79;99312.99;80806;1294;3068205;-63
2023/06/01 09:48:44;;;;;;;2.50;1.20;;;;;;;24.66;31.18;99314.07;80829;1295;3051271;-64
2023/06/01 09:51:22;;;;;;;5.30;1.40;;;;;;;24.47;30.91;99319.55;82150;1294;3011369;-66
2023/06/01 09:53:50;;;;;;;2.90;1.10;;;;;;;24.42;30.81;99316.41;80873;1295;3048472;-65
2023/06/01 09:56:17;;;;;;;5.70;1.20;;;;;;;24.34;30.67;99313.11;82155;1295;3018086;-65
2023/06/01 09:58:43;;;;;;;8.00;1.50;;;;;;;24.40;30.39;99315.40;82134;1293;3011276;-66
2023/06/01 10:01:12;;;;;;;1.70;1.10;;;;;;;24.09;30.46;99313.80;80852;1294;3026411;-66
2023/06/01 10:03:41;;;;;;;4.00;1.10;;;;;;;23.86;30.68;99310.83;81950;1297;3012683;-66
2023/06/01 10:06:13;;;;;;;2.40;1.10;;;;;;;23.98;31.36;99309.50;81562;1294;3011440;-65
2023/06/01 10:08:41;;;;;;;2.90;1.20;;;;;;;24.35;31.22;99306.77;82120;1295;3011503;-65
2023/06/01 10:11:09;;;;;;;5.10;1.80;;;;;;;24.65;30.89;99305.04;80941;1292;3048253;-66
2023/06/01 10:13:35;;;;;;;8.30;1.40;;;;;;;24.78;30.14;99306.59;82045;1293;3013192;-64
2023/06/01 10:16:03;;;;;;;6.40;1.30;;;;;;;24.80;29.88;99305.01;82140;1296;3011190;-64
2023/06/01 10:18:31;;;;;;;2.20;1.00;;;;;;;24.74;30.62;99308.50;80882;1294;3027104;-66
2023/06/01 10:20:58;;;;;;;3.50;1.10;;;;;;;24.92;30.09;99303.85;82172;1295;3012682;-64
2023/06/01 10:23:25;;;;;;;2.40;1.00;;;;;;;25.07;29.92;99305.54;82027;1292;3011441;-65
2023/06/01 10:25:53;;;;;;;3.00;1.50;;;;;;;25.14;29.82;99301.68;80824;1294;3049354;-66
2023/06/01 10:28:20;;;;;;;2.80;1.40;;;;;;;25.27;29.49;99298.37;82152;1293;3018296;-66
2023/06/01 10:31:08;;;;;;;3.00;1.60;;;;;;;25.28;29.06;99300.58;81911;1296;3011232;-66
2023/06/01 10:34:07;;;;;;;9.00;1.70;;;;;;;25.34;28.89;99294.85;80748;1294;3051958;-65
2023/06/01 10:36:51;;;;;;;4.80;1.90;;;;;;;25.36;29.77;99290.99;80734;1292;3067965;-66
2023/06/01 10:39:26;;;;;;;5.40;2.00;;;;;;;25.32;29.38;99289.32;80842;1295;3050763;-64
2023/06/01 10:42:18;;;;;;;5.30;1.90;;;;;;;25.41;29.70;99295.20;81579;1292;3011286;-64
2023/06/01 10:44:50;;;;;;;4.60;1.30;;;;;;;25.63;28.99;99293.52;80787;1294;3058393;-65
2023/06/01 10:47:17;;;;;;;3.40;1.70;;;;;;;25.68;28.82;99291.29;82095;1294;3011388;-63
2023/06/01 10:49:49;;;;;;;3.70;1.50;;;;;;;25.62;28.83;99288.88;81560;1293;3011305;-63
2023/06/01 10:52:34;;;;;;;6.40;1.50;;;;;;;25.80;28.88;99286.98;82117;1294;3011259;-65
2023/06/01 10:55:11;;;;;;;3.90;1.20;;;;;;;25.80;28.63;99281.77;80846;1298;3051948;-64
2023/06/01 10:57:44;;;;;;;3.60;1.10;;;;;;;25.83;28.17;99283.52;80829;1294;3052982;-64
2023/06/01 11:00:29;;;;;;;3.30;1.40;;;;;;;25.84;28.74;99282.08;82109;1297;3011530;-66
2023/06/01 11:03:03;;;;;;;2.50;1.50;;;;;;;25.98;28.45;99278.43;80842;1294;3050656;-64
2023/06/01 11:05:46;;;;;;;5.30;1.30;;;;;;;26.21;28.46;99278.64;82104;1293;3011117;-65
2023/06/01 11:08:21;;;;;;;;;;;;;;;26.26;28.08;99275.98;80854;1295;3048422;-63
2023/06/01 11:10:50;;;;;;;1.90;1.10;;;;;;;26.31;27.78;99276.95;81578;1293;3011255;-63
2023/06/01 11:13:21;;;;;;;6.60;1.30;;;;;;;26.44;27.85;99272.40;82091;1294;3012754;-65
2023/06/01 11:16:24;;;;;;;4.70;1.60;;;;;;;26.41;28.55;99271.02;80846;1294;3051694;-64
2023/06/01 11:18:59;;;;;;;4.30;1.50;;;;;;;26.49;28.47;99264.91;80717;1295;3053478;-61
2023/06/01 11:21:29;;;;;;;5.40;1.30;;;;;;;26.69;28.16;99263.14;81549;1294;3011401;-63
2023/06/01 11:23:57;;;;;;;6.10;1.60;;;;;;;26.84;27.98;99253.39;82124;1294;3012689;-62
2023/06/01 11:26:29;;;;;;;4.40;1.40;;;;;;;26.72;27.88;99256.09;82120;1294;3011221;-62
2023/06/01 11:29:05;;;;;;;3.80;1.70;;;;;;;26.69;27.50;99249.13;80828;1294;3048475;-64
2023/06/01 11:31:42;;;;;;;3.30;1.60;;;;;;;26.75;27.83;99248.42;80828;1294;3053143;-61